createdAt,value
2019-02-15T00:00:02.261Z,309.61
2019-02-15T00:01:02.205Z,309.31
2019-02-15T00:02:02.184Z,309.38
2019-02-15T00:03:02.186Z,309.12
2019-02-15T00:04:02.208Z,309.04
2019-02-15T00:05:02.198Z,309.00
2019-02-15T00:06:02.218Z,308.94
2019-02-15T00:07:02.137Z,308.62
2019-02-15T00:08:02.201Z,309.32
2019-02-15T00:09:02.144Z,309.31
2019-02-15T00:10:02.231Z,309.23
2019-02-15T00:11:02.112Z,309.51
2019-02-15T00:12:02.078Z,309.30
2019-02-15T00:13:02.103Z,309.40
2019-02-15T00:14:02.080Z,309.24
2019-02-15T00:15:02.071Z,309.39
2019-02-15T00:16:02.062Z,309.32
2019-02-15T00:17:02.038Z,309.09
2019-02-15T00:18:02.029Z,309.31
2019-02-15T00:19:02.020Z,309.21
2019-02-15T00:20:02.044Z,309.50
2019-02-15T00:21:02.034Z,309.37
2019-02-15T00:22:01.993Z,309.65
2019-02-15T00:23:01.987Z,309.79
2019-02-15T00:24:01.963Z,309.69
2019-02-15T00:25:01.955Z,309.61
2019-02-15T00:26:01.984Z,309.55
2019-02-15T00:27:01.934Z,309.25
2019-02-15T00:28:01.940Z,309.49
2019-02-15T00:29:01.930Z,309.48
2019-02-15T00:30:01.927Z,309.13
2019-02-15T00:31:01.926Z,309.35
2019-02-15T00:32:01.919Z,309.85
2019-02-15T00:33:01.882Z,309.48
2019-02-15T00:34:01.862Z,309.92
2019-02-15T00:35:01.856Z,309.50
2019-02-15T00:36:01.842Z,309.45
2019-02-15T00:37:01.895Z,309.66
2019-02-15T00:38:01.876Z,309.67
2019-02-15T00:39:01.833Z,309.79
2019-02-15T00:40:01.806Z,310.11
2019-02-15T00:41:01.805Z,310.03
2019-02-15T00:42:01.807Z,309.09
2019-02-15T00:43:01.782Z,309.67
2019-02-15T00:44:01.760Z,309.33
2019-02-15T00:45:01.761Z,309.67
2019-02-15T00:46:01.743Z,309.09
2019-02-15T00:47:01.729Z,309.90
2019-02-15T00:48:01.745Z,309.20
2019-02-15T00:49:01.705Z,309.57
2019-02-15T00:50:01.697Z,309.78
2019-02-15T00:51:01.686Z,310.52
2019-02-15T00:52:01.675Z,309.36
2019-02-15T00:53:01.727Z,310.31
2019-02-15T00:54:01.650Z,309.76
2019-02-15T00:55:01.697Z,309.91
2019-02-15T00:56:01.636Z,309.51
2019-02-15T00:57:01.630Z,309.86
2019-02-15T00:58:01.621Z,309.74
2019-02-15T00:59:01.635Z,309.42
2019-02-15T01:00:01.608Z,309.83
2019-02-15T01:01:01.614Z,310.09
2019-02-15T01:02:01.581Z,309.46
2019-02-15T01:03:01.559Z,310.17
2019-02-15T01:04:01.691Z,310.10
2019-02-15T01:05:01.546Z,310.27
2019-02-15T01:06:01.534Z,309.95
2019-02-15T01:07:01.532Z,310.81
2019-02-15T01:08:01.509Z,309.75
2019-02-15T01:09:01.686Z,309.64
2019-02-15T01:10:01.502Z,309.34
2019-02-15T01:11:01.492Z,309.73
2019-02-15T01:12:01.493Z,309.67
2019-02-15T01:13:01.455Z,309.57
2019-02-15T01:14:01.466Z,309.78
2019-02-15T01:15:01.461Z,309.95
2019-02-15T01:16:01.423Z,309.55
2019-02-15T01:17:01.448Z,309.78
2019-02-15T01:18:01.406Z,309.86
2019-02-15T01:19:01.395Z,309.24
2019-02-15T01:20:01.421Z,310.42
2019-02-15T01:21:01.377Z,309.96
2019-02-15T01:22:01.375Z,309.63
2019-02-15T01:23:01.368Z,310.13
2019-02-15T01:24:01.340Z,309.87
2019-02-15T01:25:01.373Z,309.72
2019-02-15T01:26:01.367Z,309.38
2019-02-15T01:27:01.337Z,309.51
2019-02-15T01:28:01.329Z,310.17
2019-02-15T01:29:01.293Z,309.45
2019-02-15T01:30:01.289Z,310.01
2019-02-15T01:31:01.277Z,309.85
2019-02-15T01:32:01.263Z,309.90
2019-02-15T01:33:01.252Z,309.49
2019-02-15T01:34:01.246Z,309.91
2019-02-15T01:35:01.220Z,309.72
2019-02-15T01:36:01.224Z,309.98
2019-02-15T01:37:01.223Z,309.35
2019-02-15T01:38:01.256Z,309.74
2019-02-15T01:39:01.197Z,309.92
2019-02-15T01:40:01.184Z,310.05
2019-02-15T01:41:01.215Z,309.81
2019-02-15T01:42:01.199Z,309.25
2019-02-15T01:43:01.146Z,309.46
2019-02-15T01:44:01.152Z,309.13
2019-02-15T01:45:01.140Z,309.80
2019-02-15T01:46:01.125Z,308.72
2019-02-15T01:47:01.150Z,309.47
2019-02-15T01:48:01.091Z,309.31
2019-02-15T01:49:01.105Z,309.38
2019-02-15T01:50:01.070Z,309.53
2019-02-15T01:51:01.094Z,308.96
2019-02-15T01:52:01.088Z,308.82
2019-02-15T01:53:01.118Z,309.30
2019-02-15T01:54:01.077Z,309.23
2019-02-15T01:55:01.049Z,309.61
2019-02-15T01:56:01.016Z,309.46
2019-02-15T01:57:01.027Z,309.46
2019-02-15T01:58:01.012Z,309.58
2019-02-15T01:59:01.023Z,309.48
2019-02-15T02:00:00.967Z,309.23
2019-02-15T02:01:00.960Z,309.45
2019-02-15T02:02:00.956Z,309.13
2019-02-15T02:03:00.958Z,309.15
2019-02-15T02:04:00.959Z,309.49
2019-02-15T02:05:00.988Z,309.28
2019-02-15T02:06:00.933Z,309.13
2019-02-15T02:07:00.902Z,309.23
2019-02-15T02:08:00.914Z,309.23
2019-02-15T02:09:00.887Z,308.86
2019-02-15T02:10:00.879Z,309.21
2019-02-15T02:11:00.885Z,309.56
2019-02-15T02:12:00.856Z,309.18
2019-02-15T02:13:00.847Z,309.39
2019-02-15T02:14:00.871Z,309.47
2019-02-15T02:15:09.573Z,309.12
2019-02-15T02:16:10.100Z,309.47
2019-02-15T02:17:00.806Z,309.06
2019-02-15T02:18:00.772Z,308.73
2019-02-15T02:19:00.767Z,308.60
2019-02-15T02:20:00.761Z,309.16
2019-02-15T02:21:00.754Z,309.43
2019-02-15T02:22:09.647Z,310.11
2019-02-15T02:23:10.184Z,309.33
2019-02-15T02:24:10.212Z,309.10
2019-02-15T02:25:00.714Z,309.15
2019-02-15T02:26:00.689Z,309.55
2019-02-15T02:27:00.699Z,310.02
2019-02-15T02:28:00.696Z,308.87
2019-02-15T02:29:00.665Z,309.25
2019-02-15T02:30:00.668Z,309.37
2019-02-15T02:31:00.678Z,309.32
2019-02-15T02:32:00.654Z,309.62
2019-02-15T02:33:00.641Z,309.64
2019-02-15T02:34:00.622Z,308.95
2019-02-15T02:35:00.598Z,309.27
2019-02-15T02:36:00.635Z,310.02
2019-02-15T02:37:00.588Z,310.03
2019-02-15T02:38:00.577Z,310.47
2019-02-15T02:39:00.558Z,310.13
2019-02-15T02:40:00.546Z,309.66
2019-02-15T02:41:00.539Z,309.19
2019-02-15T02:42:00.549Z,308.95
2019-02-15T02:43:00.531Z,309.22
2019-02-15T02:44:00.543Z,309.36
2019-02-15T02:45:00.507Z,309.42
2019-02-15T02:46:00.492Z,309.81
2019-02-15T02:47:00.480Z,309.15
2019-02-15T02:48:00.500Z,309.51
2019-02-15T02:49:00.468Z,309.46
2019-02-15T02:50:00.469Z,309.89
2019-02-15T02:51:00.447Z,308.78
2019-02-15T02:52:00.435Z,309.14
2019-02-15T02:53:00.431Z,309.11
2019-02-15T02:54:00.431Z,309.02
2019-02-15T02:55:00.479Z,309.44
2019-02-15T02:56:00.406Z,309.13
2019-02-15T02:57:00.388Z,309.38
2019-02-15T02:58:00.425Z,309.03
2019-02-15T02:59:00.359Z,308.86
2019-02-15T03:00:00.527Z,308.52
2019-02-15T03:01:00.347Z,308.56
2019-02-15T03:02:00.332Z,308.72
2019-02-15T03:03:00.324Z,308.69
2019-02-15T03:04:00.329Z,309.06
2019-02-15T03:05:00.481Z,308.45
2019-02-15T03:06:00.295Z,308.44
2019-02-15T03:07:00.287Z,308.82
2019-02-15T03:08:00.288Z,308.92
2019-02-15T03:09:00.307Z,308.13
2019-02-15T03:10:00.313Z,309.03
2019-02-15T03:11:00.242Z,309.51
2019-02-15T03:12:00.235Z,308.70
2019-02-15T03:13:00.207Z,308.37
2019-02-15T03:14:10.708Z,308.92
2019-02-15T03:15:01.218Z,309.20
2019-02-15T03:16:00.182Z,308.57
2019-02-15T03:17:00.172Z,308.90
2019-02-15T03:18:00.207Z,309.20
2019-02-15T03:19:00.171Z,308.90
2019-02-15T03:20:00.321Z,308.76
2019-02-15T03:21:00.142Z,309.13
2019-02-15T03:22:00.137Z,308.72
2019-02-15T03:23:00.132Z,308.85
2019-02-15T03:24:00.140Z,309.50
2019-02-15T03:25:00.287Z,309.63
2019-02-15T03:26:00.093Z,308.79
2019-02-15T03:27:00.093Z,309.41
2019-02-15T03:28:00.094Z,308.90
2019-02-15T03:29:00.080Z,309.35
2019-02-15T03:30:00.044Z,309.20
2019-02-15T03:31:00.056Z,308.76
2019-02-15T03:32:00.044Z,308.96
2019-02-15T03:33:00.034Z,309.02
2019-02-15T03:33:59.996Z,309.24
2019-02-15T03:34:59.995Z,309.42
2019-02-15T03:35:59.998Z,309.20
2019-02-15T03:37:00.005Z,308.99
2019-02-15T03:37:59.980Z,309.39
2019-02-15T03:38:59.947Z,309.29
2019-02-15T03:39:59.941Z,309.04
2019-02-15T03:40:59.966Z,309.39
2019-02-15T03:41:59.926Z,309.62
2019-02-15T03:42:59.912Z,308.68
2019-02-15T03:43:59.912Z,309.50
2019-02-15T03:44:59.891Z,309.40
2019-02-15T03:45:59.877Z,308.95
2019-02-15T03:46:59.861Z,309.34
2019-02-15T03:47:59.861Z,309.08
2019-02-15T03:48:59.860Z,309.62
2019-02-15T03:49:59.853Z,309.04
2019-02-15T03:50:59.837Z,309.35
2019-02-15T03:51:59.828Z,309.63
2019-02-15T03:52:59.832Z,308.91
2019-02-15T03:53:59.799Z,309.16
2019-02-15T03:54:59.800Z,309.04
2019-02-15T03:55:59.797Z,309.64
2019-02-15T03:56:59.765Z,310.03
2019-02-15T03:57:59.765Z,309.20
2019-02-15T03:58:59.759Z,309.66
2019-02-15T03:59:59.739Z,309.68
2019-02-15T04:00:59.726Z,309.01
2019-02-15T04:01:59.745Z,309.31
2019-02-15T04:02:59.728Z,309.00
2019-02-15T04:03:59.705Z,309.13
2019-02-15T04:04:59.689Z,309.71
2019-02-15T04:05:59.691Z,309.87
2019-02-15T04:06:59.672Z,309.93
2019-02-15T04:07:59.672Z,309.74
2019-02-15T04:08:59.641Z,309.57
2019-02-15T04:09:59.626Z,309.32
2019-02-15T04:10:59.642Z,309.82
2019-02-15T04:11:59.617Z,309.00
2019-02-15T04:12:59.604Z,308.66
2019-02-15T04:13:59.612Z,308.90
2019-02-15T04:14:59.587Z,309.22
2019-02-15T04:15:59.693Z,309.15
2019-02-15T04:16:59.551Z,309.13
2019-02-15T04:17:59.568Z,308.75
2019-02-15T04:18:59.553Z,309.95
2019-02-15T04:19:59.534Z,309.28
2019-02-15T04:20:59.529Z,309.34
2019-02-15T04:21:59.518Z,309.16
2019-02-15T04:22:59.514Z,309.19
2019-02-15T04:23:59.510Z,308.71
2019-02-15T04:24:59.481Z,308.34
2019-02-15T04:25:59.468Z,308.86
2019-02-15T04:26:59.468Z,309.06
2019-02-15T04:27:59.476Z,308.80
2019-02-15T04:28:59.478Z,308.73
2019-02-15T04:29:59.446Z,309.51
2019-02-15T04:30:59.422Z,309.06
2019-02-15T04:31:59.417Z,308.46
2019-02-15T04:32:59.405Z,308.63
2019-02-15T04:33:59.441Z,308.85
2019-02-15T04:34:59.376Z,309.12
2019-02-15T04:35:59.403Z,308.91
2019-02-15T04:36:59.375Z,309.34
2019-02-15T04:37:59.366Z,309.16
2019-02-15T04:38:59.342Z,309.35
2019-02-15T04:39:59.376Z,308.44
2019-02-15T04:40:59.310Z,309.47
2019-02-15T04:41:59.307Z,308.68
2019-02-15T04:42:59.297Z,309.30
2019-02-15T04:43:59.293Z,309.54
2019-02-15T04:44:59.278Z,309.52
2019-02-15T04:45:59.289Z,309.80
2019-02-15T04:46:59.274Z,309.64
2019-02-15T04:47:59.281Z,308.63
2019-02-15T04:48:59.269Z,308.87
2019-02-15T04:49:59.859Z,309.21
2019-02-15T04:51:00.894Z,309.48
2019-02-15T04:51:59.234Z,309.20
2019-02-15T04:52:59.206Z,309.18
2019-02-15T04:53:59.218Z,309.53
2019-02-15T04:54:59.210Z,309.40
2019-02-15T04:55:59.217Z,309.55
2019-02-15T04:56:59.176Z,309.46
2019-02-15T04:57:59.171Z,309.80
2019-02-15T04:58:59.176Z,309.43
2019-02-15T04:59:59.151Z,309.01
2019-02-15T05:00:59.157Z,309.89
2019-02-15T05:01:59.133Z,309.61
2019-02-15T05:02:59.102Z,310.13
2019-02-15T05:03:59.089Z,310.15
2019-02-15T05:04:59.118Z,310.02
2019-02-15T05:05:59.097Z,310.51
2019-02-15T05:06:59.118Z,310.12
2019-02-15T05:07:59.102Z,310.29
2019-02-15T05:08:59.051Z,310.46
2019-02-15T05:09:59.034Z,310.40
2019-02-15T05:10:59.014Z,309.65
2019-02-15T05:11:59.029Z,309.97
2019-02-15T05:12:59.037Z,309.67
2019-02-15T05:13:58.990Z,309.77
2019-02-15T05:14:59.001Z,309.60
2019-02-15T05:15:58.974Z,310.10
2019-02-15T05:16:59.051Z,309.48
2019-02-15T05:17:58.960Z,310.13
2019-02-15T05:18:58.943Z,309.08
2019-02-15T05:19:58.939Z,308.87
2019-02-15T05:20:58.975Z,309.57
2019-02-15T05:21:58.922Z,308.35
2019-02-15T05:22:58.921Z,308.99
2019-02-15T05:23:58.897Z,308.80
2019-02-15T05:24:58.895Z,309.17
2019-02-15T05:25:58.904Z,309.54
2019-02-15T05:26:58.856Z,309.74
2019-02-15T05:27:58.879Z,309.70
2019-02-15T05:28:58.846Z,309.65
2019-02-15T05:29:58.825Z,309.67
2019-02-15T05:30:58.816Z,309.31
2019-02-15T05:31:58.835Z,309.82
2019-02-15T05:32:58.835Z,309.57
2019-02-15T05:33:58.779Z,309.45
2019-02-15T05:34:58.804Z,309.40
2019-02-15T05:35:58.819Z,309.51
2019-02-15T05:37:06.342Z,309.42
2019-02-15T05:37:58.737Z,309.34
2019-02-15T05:38:58.741Z,308.75
2019-02-15T05:39:58.744Z,309.06
2019-02-15T05:40:58.877Z,309.29
2019-02-15T05:41:58.794Z,309.77
2019-02-15T05:42:58.710Z,310.03
2019-02-15T05:43:58.708Z,309.38
2019-02-15T05:45:03.529Z,309.36
2019-02-15T05:45:59.672Z,309.21
2019-02-15T05:46:58.663Z,309.58
2019-02-15T05:47:58.696Z,309.41
2019-02-15T05:48:58.638Z,309.98
2019-02-15T05:49:58.670Z,310.43
2019-02-15T05:50:58.720Z,309.84
2019-02-15T05:51:58.641Z,309.95
2019-02-15T05:52:58.643Z,309.90
2019-02-15T05:53:58.718Z,311.15
2019-02-15T05:54:58.599Z,309.92
2019-02-15T05:55:58.649Z,310.06
2019-02-15T05:56:58.571Z,309.47
2019-02-15T05:57:58.575Z,309.63
2019-02-15T05:58:58.584Z,309.22
2019-02-15T05:59:58.553Z,309.28
2019-02-15T06:00:58.627Z,310.15
2019-02-15T06:01:58.630Z,309.98
2019-02-15T06:02:58.553Z,309.87
2019-02-15T06:03:58.735Z,310.06
2019-02-15T06:04:58.659Z,310.30
2019-02-15T06:05:58.576Z,309.95
2019-02-15T06:06:58.481Z,310.34
2019-02-15T06:07:58.590Z,309.67
2019-02-15T06:08:58.499Z,309.66
2019-02-15T06:09:58.486Z,309.51
2019-02-15T06:11:06.433Z,310.05
2019-02-15T06:11:59.559Z,310.04
2019-02-15T06:12:58.477Z,310.15
2019-02-15T06:13:58.428Z,309.42
2019-02-15T06:14:58.443Z,309.80
2019-02-15T06:15:58.386Z,309.91
2019-02-15T06:16:58.367Z,309.72
2019-02-15T06:17:58.533Z,309.87
2019-02-15T06:18:58.391Z,309.44
2019-02-15T06:19:58.404Z,309.72
2019-02-15T06:20:58.364Z,310.09
2019-02-15T06:21:58.418Z,310.35
2019-02-15T06:22:58.328Z,310.29
2019-02-15T06:23:58.307Z,310.25
2019-02-15T06:24:58.291Z,310.28
2019-02-15T06:25:58.444Z,310.18
2019-02-15T06:26:58.258Z,310.19
2019-02-15T06:27:58.316Z,309.86
2019-02-15T06:28:58.411Z,310.30
2019-02-15T06:29:58.810Z,310.45
2019-02-15T06:30:58.279Z,309.92
2019-02-15T06:31:58.272Z,309.63
2019-02-15T06:32:59.719Z,310.18
2019-02-15T06:33:58.280Z,310.42
2019-02-15T06:35:00.902Z,310.48
2019-02-15T06:35:58.212Z,310.69
2019-02-15T06:36:58.143Z,310.27
2019-02-15T06:37:58.306Z,310.32
2019-02-15T06:38:58.300Z,310.79
2019-02-15T06:39:58.185Z,309.94
2019-02-15T06:40:58.306Z,310.75
2019-02-15T06:41:58.181Z,309.99
2019-02-15T06:42:58.711Z,309.62
2019-02-15T06:43:58.092Z,310.14
2019-02-15T06:44:58.116Z,309.93
2019-02-15T06:45:59.041Z,310.38
2019-02-15T06:46:58.716Z,309.73
2019-02-15T06:48:01.805Z,310.03
2019-02-15T06:49:02.263Z,309.74
2019-02-15T06:50:02.473Z,309.49
2019-02-15T06:50:58.008Z,310.10
2019-02-15T06:51:58.079Z,309.80
2019-02-15T06:52:58.042Z,309.73
2019-02-15T06:53:58.034Z,310.13
2019-02-15T06:54:58.054Z,310.15
2019-02-15T06:55:57.976Z,310.02
2019-02-15T06:57:01.368Z,310.17
2019-02-15T06:58:00.707Z,310.51
2019-02-15T06:59:00.822Z,310.23
2019-02-15T06:59:59.302Z,310.95
2019-02-15T07:00:57.929Z,311.07
2019-02-15T07:01:57.888Z,310.32
2019-02-15T07:02:57.902Z,310.70
2019-02-15T07:03:57.921Z,310.62
2019-02-15T07:04:57.869Z,311.03
2019-02-15T07:05:57.884Z,310.91
2019-02-15T07:06:57.894Z,311.30
2019-02-15T07:07:57.938Z,311.20
2019-02-15T07:08:57.911Z,311.67
2019-02-15T07:09:57.832Z,311.05
2019-02-15T07:10:57.891Z,310.82
2019-02-15T07:11:57.884Z,311.29
2019-02-15T07:12:58.707Z,311.74
2019-02-15T07:13:57.850Z,311.67
2019-02-15T07:14:57.843Z,311.42
2019-02-15T07:15:57.877Z,311.39
2019-02-15T07:16:57.835Z,311.71
2019-02-15T07:17:57.917Z,311.35
2019-02-15T07:18:57.778Z,311.38
2019-02-15T07:19:57.721Z,311.41
2019-02-15T07:20:57.763Z,311.25
2019-02-15T07:21:57.683Z,311.18
2019-02-15T07:22:57.691Z,310.88
2019-02-15T07:23:57.683Z,311.44
2019-02-15T07:24:57.709Z,311.35
2019-02-15T07:25:57.687Z,311.44
2019-02-15T07:26:57.624Z,311.61
2019-02-15T07:27:57.647Z,311.39
2019-02-15T07:28:57.611Z,310.92
2019-02-15T07:29:58.714Z,311.64
2019-02-15T07:30:57.650Z,311.13
2019-02-15T07:31:57.579Z,311.60
2019-02-15T07:32:57.611Z,311.09
2019-02-15T07:33:57.555Z,311.70
2019-02-15T07:34:57.607Z,311.35
2019-02-15T07:35:57.569Z,310.67
2019-02-15T07:36:57.538Z,310.76
2019-02-15T07:37:57.584Z,310.77
2019-02-15T07:38:57.808Z,311.16
2019-02-15T07:39:57.530Z,311.27
2019-02-15T07:40:57.497Z,310.93
2019-02-15T07:41:57.479Z,310.59
2019-02-15T07:42:57.591Z,311.00
2019-02-15T07:43:57.475Z,310.49
2019-02-15T07:44:57.471Z,310.82
2019-02-15T07:45:57.450Z,310.71
2019-02-15T07:46:57.525Z,311.29
2019-02-15T07:47:58.625Z,311.05
2019-02-15T07:48:57.446Z,311.22
2019-02-15T07:49:57.453Z,311.34
2019-02-15T07:50:57.881Z,311.47
2019-02-15T07:51:57.375Z,311.38
2019-02-15T07:52:57.391Z,310.85
2019-02-15T07:53:57.432Z,311.04
2019-02-15T07:54:57.714Z,311.70
2019-02-15T07:55:57.371Z,311.11
2019-02-15T07:56:57.379Z,311.27
2019-02-15T07:57:58.214Z,311.06
2019-02-15T07:58:57.307Z,310.78
2019-02-15T07:59:57.316Z,311.12
2019-02-15T08:00:57.338Z,311.17
2019-02-15T08:02:01.781Z,310.98
2019-02-15T08:02:57.297Z,310.96
2019-02-15T08:03:57.346Z,310.90
2019-02-15T08:04:57.349Z,310.77
2019-02-15T08:05:57.311Z,310.90
2019-02-15T08:06:57.320Z,311.39
2019-02-15T08:07:57.240Z,311.52
2019-02-15T08:08:57.193Z,311.11
2019-02-15T08:09:57.261Z,310.79
2019-02-15T08:10:57.280Z,310.72
2019-02-15T08:11:57.258Z,311.08
2019-02-15T08:12:57.252Z,310.61
2019-02-15T08:13:57.277Z,310.85
2019-02-15T08:14:57.183Z,311.12
2019-02-15T08:15:57.118Z,311.03
2019-02-15T08:16:57.223Z,310.67
2019-02-15T08:17:57.716Z,310.75
2019-02-15T08:18:57.360Z,310.72
2019-02-15T08:19:57.097Z,311.05
2019-02-15T08:20:57.072Z,310.18
2019-02-15T08:21:57.238Z,310.89
2019-02-15T08:22:57.234Z,310.79
2019-02-15T08:23:57.140Z,311.24
2019-02-15T08:24:57.090Z,310.64
2019-02-15T08:25:57.036Z,311.14
2019-02-15T08:26:57.009Z,310.55
2019-02-15T08:27:57.012Z,310.63
2019-02-15T08:28:57.015Z,310.76
2019-02-15T08:29:57.011Z,310.72
2019-02-15T08:30:56.987Z,310.94
2019-02-15T08:31:56.996Z,310.73
2019-02-15T08:32:57.013Z,310.73
2019-02-15T08:33:56.991Z,311.03
2019-02-15T08:34:56.986Z,311.00
2019-02-15T08:35:56.972Z,310.71
2019-02-15T08:36:56.959Z,310.97
2019-02-15T08:37:56.954Z,310.92
2019-02-15T08:38:56.881Z,310.79
2019-02-15T08:39:56.887Z,311.10
2019-02-15T08:40:56.878Z,310.45
2019-02-15T08:42:01.359Z,310.51
2019-02-15T08:42:57.881Z,311.19
2019-02-15T08:43:57.498Z,310.93
2019-02-15T08:44:56.867Z,310.54
2019-02-15T08:46:01.600Z,310.66
2019-02-15T08:46:57.861Z,310.80
2019-02-15T08:47:56.794Z,310.58
2019-02-15T08:48:56.821Z,310.71
2019-02-15T08:49:56.908Z,310.81
2019-02-15T08:50:56.804Z,310.94
2019-02-15T08:51:56.940Z,310.61
2019-02-15T08:52:56.836Z,310.79
2019-02-15T08:53:56.772Z,310.65
2019-02-15T08:54:56.775Z,310.52
2019-02-15T08:55:56.716Z,309.83
2019-02-15T08:56:56.706Z,309.77
2019-02-15T08:57:56.749Z,310.56
2019-02-15T08:58:56.832Z,310.46
2019-02-15T08:59:56.706Z,310.55
2019-02-15T09:00:56.723Z,310.50
2019-02-15T09:01:56.660Z,310.67
2019-02-15T09:02:56.621Z,310.34
2019-02-15T09:03:56.655Z,310.55
2019-02-15T09:04:56.642Z,310.32
2019-02-15T09:05:56.629Z,309.86
2019-02-15T09:06:56.622Z,309.29
2019-02-15T09:07:56.617Z,310.32
2019-02-15T09:08:56.586Z,310.29
2019-02-15T09:09:56.599Z,309.68
2019-02-15T09:10:56.602Z,309.37
2019-02-15T09:11:56.609Z,310.41
2019-02-15T09:12:56.584Z,310.46
2019-02-15T09:13:56.525Z,310.60
2019-02-15T09:14:56.587Z,310.50
2019-02-15T09:15:56.524Z,310.43
2019-02-15T09:16:56.545Z,310.19
2019-02-15T09:17:56.495Z,310.12
2019-02-15T09:18:56.544Z,309.73
2019-02-15T09:19:56.465Z,309.41
2019-02-15T09:20:56.462Z,309.95
2019-02-15T09:21:56.470Z,309.62
2019-02-15T09:22:56.448Z,309.23
2019-02-15T09:23:56.427Z,309.75
2019-02-15T09:24:56.445Z,309.33
2019-02-15T09:25:56.401Z,309.25
2019-02-15T09:26:56.409Z,309.48
2019-02-15T09:27:56.368Z,309.27
2019-02-15T09:28:57.226Z,309.69
2019-02-15T09:29:56.391Z,309.09
2019-02-15T09:30:56.373Z,309.06
2019-02-15T09:31:56.328Z,309.03
2019-02-15T09:32:56.378Z,309.13
2019-02-15T09:33:56.333Z,308.60
2019-02-15T09:34:56.309Z,308.65
2019-02-15T09:35:56.328Z,308.20
2019-02-15T09:36:56.256Z,308.77
2019-02-15T09:37:56.333Z,308.70
2019-02-15T09:38:56.257Z,309.05
2019-02-15T09:39:56.338Z,309.29
2019-02-15T09:40:56.260Z,309.48
2019-02-15T09:41:56.252Z,308.71
2019-02-15T09:42:56.236Z,308.72
2019-02-15T09:43:56.245Z,309.12
2019-02-15T09:44:56.394Z,309.34
2019-02-15T09:45:56.228Z,308.51
2019-02-15T09:46:56.201Z,309.24
2019-02-15T09:47:56.264Z,308.83
2019-02-15T09:48:56.178Z,309.30
2019-02-15T09:49:56.210Z,309.36
2019-02-15T09:50:56.157Z,309.30
2019-02-15T09:51:56.142Z,308.40
2019-02-15T09:52:56.127Z,308.74
2019-02-15T09:53:56.169Z,308.71
2019-02-15T09:54:56.148Z,307.96
2019-02-15T09:55:56.127Z,308.55
2019-02-15T09:56:56.142Z,307.81
2019-02-15T09:57:56.063Z,307.67
2019-02-15T09:58:56.080Z,307.97
2019-02-15T09:59:56.084Z,308.00
2019-02-15T10:00:56.095Z,308.61
2019-02-15T10:01:56.037Z,309.14
2019-02-15T10:02:56.064Z,309.09
2019-02-15T10:03:56.045Z,309.22
2019-02-15T10:04:56.025Z,308.14
2019-02-15T10:05:55.999Z,308.26
2019-02-15T10:06:56.732Z,308.52
2019-02-15T10:07:55.981Z,308.57
2019-02-15T10:08:55.969Z,307.61
2019-02-15T10:09:55.924Z,308.25
2019-02-15T10:10:55.987Z,307.52
2019-02-15T10:11:55.926Z,307.84
2019-02-15T10:12:55.930Z,308.13
2019-02-15T10:13:55.909Z,307.63
2019-02-15T10:14:55.892Z,308.22
2019-02-15T10:15:55.913Z,308.30
2019-02-15T10:16:55.908Z,307.45
2019-02-15T10:17:55.846Z,307.82
2019-02-15T10:18:55.846Z,307.83
2019-02-15T10:19:55.824Z,307.70
2019-02-15T10:20:55.858Z,307.65
2019-02-15T10:21:55.810Z,309.02
2019-02-15T10:22:55.805Z,307.73
2019-02-15T10:23:55.792Z,308.71
2019-02-15T10:24:55.787Z,308.96
2019-02-15T10:25:55.767Z,307.81
2019-02-15T10:26:55.836Z,307.90
2019-02-15T10:27:55.762Z,308.15
2019-02-15T10:28:55.747Z,307.50
2019-02-15T10:29:55.769Z,308.08
2019-02-15T10:30:55.707Z,308.74
2019-02-15T10:31:55.725Z,309.15
2019-02-15T10:32:55.733Z,307.81
2019-02-15T10:33:55.695Z,307.54
2019-02-15T10:34:55.698Z,307.86
2019-02-15T10:35:55.745Z,308.45
2019-02-15T10:36:55.674Z,308.08
2019-02-15T10:37:55.719Z,307.06
2019-02-15T10:38:55.661Z,306.96
2019-02-15T10:39:55.642Z,307.92
2019-02-15T10:40:55.595Z,307.53
2019-02-15T10:41:55.628Z,308.44
2019-02-15T10:42:55.599Z,307.68
2019-02-15T10:43:55.604Z,307.08
2019-02-15T10:44:55.561Z,307.18
2019-02-15T10:45:55.551Z,307.04
2019-02-15T10:46:55.533Z,306.68
2019-02-15T10:47:55.523Z,306.59
2019-02-15T10:48:55.547Z,306.81
2019-02-15T10:49:55.526Z,306.29
2019-02-15T10:50:55.501Z,306.32
2019-02-15T10:51:55.490Z,306.40
2019-02-15T10:52:55.476Z,306.58
2019-02-15T10:53:55.473Z,306.77
2019-02-15T10:54:55.502Z,307.05
2019-02-15T10:55:55.436Z,306.46
2019-02-15T10:56:55.457Z,306.53
2019-02-15T10:57:55.444Z,306.58
2019-02-15T10:58:55.407Z,306.71
2019-02-15T10:59:55.451Z,306.68
2019-02-15T11:00:55.458Z,306.35
2019-02-15T11:01:55.421Z,305.86
2019-02-15T11:02:55.374Z,305.92
2019-02-15T11:03:55.349Z,305.38
2019-02-15T11:04:55.381Z,306.88
2019-02-15T11:05:55.345Z,306.92
2019-02-15T11:06:55.341Z,306.87
2019-02-15T11:07:55.314Z,307.22
2019-02-15T11:08:55.355Z,305.96
2019-02-15T11:09:55.349Z,305.69
2019-02-15T11:10:55.318Z,305.76
2019-02-15T11:11:55.317Z,305.92
2019-02-15T11:12:55.331Z,305.49
2019-02-15T11:13:55.245Z,305.42
2019-02-15T11:14:55.246Z,305.48
2019-02-15T11:15:55.293Z,305.35
2019-02-15T11:16:55.207Z,304.74
2019-02-15T11:17:55.204Z,305.92
2019-02-15T11:18:55.195Z,305.49
2019-02-15T11:19:55.220Z,305.72
2019-02-15T11:20:55.191Z,306.96
2019-02-15T11:21:55.245Z,306.00
2019-02-15T11:22:55.170Z,306.52
2019-02-15T11:23:55.149Z,306.14
2019-02-15T11:24:55.155Z,306.38
2019-02-15T11:25:55.752Z,306.66
2019-02-15T11:26:55.103Z,306.21
2019-02-15T11:27:55.131Z,306.45
2019-02-15T11:28:55.086Z,304.61
2019-02-15T11:29:55.084Z,305.23
2019-02-15T11:30:55.132Z,305.11
2019-02-15T11:31:55.085Z,305.55
2019-02-15T11:32:55.059Z,305.28
2019-02-15T11:33:55.073Z,305.46
2019-02-15T11:34:55.018Z,305.38
2019-02-15T11:35:55.086Z,305.47
2019-02-15T11:37:03.982Z,305.41
2019-02-15T11:37:55.042Z,305.97
2019-02-15T11:38:55.018Z,306.91
2019-02-15T11:39:55.105Z,306.50
2019-02-15T11:40:54.997Z,306.25
2019-02-15T11:41:55.140Z,305.58
2019-02-15T11:42:55.086Z,305.68
2019-02-15T11:43:55.131Z,306.07
2019-02-15T11:44:54.962Z,304.28
2019-02-15T11:45:54.990Z,305.98
2019-02-15T11:46:56.857Z,305.50
2019-02-15T11:47:55.902Z,305.14
2019-02-15T11:48:55.799Z,306.24
2019-02-15T11:49:56.785Z,305.04
2019-02-15T11:50:55.942Z,305.83
2019-02-15T11:51:54.872Z,304.39
2019-02-15T11:52:56.291Z,305.32
2019-02-15T11:53:55.018Z,305.34
2019-02-15T11:54:54.925Z,305.16
2019-02-15T11:55:54.888Z,305.91
2019-02-15T11:56:55.423Z,305.67
2019-02-15T11:57:55.786Z,306.18
2019-02-15T11:58:56.690Z,305.06
2019-02-15T11:59:55.462Z,305.79
2019-02-15T12:00:54.782Z,305.21
2019-02-15T12:01:55.519Z,304.88
2019-02-15T12:02:55.432Z,304.56
2019-02-15T12:03:54.961Z,304.37
2019-02-15T12:04:54.828Z,305.43
2019-02-15T12:05:55.288Z,303.85
2019-02-15T12:06:54.725Z,304.71
2019-02-15T12:07:54.720Z,305.50
2019-02-15T12:08:54.660Z,306.65
2019-02-15T12:09:54.680Z,305.89
2019-02-15T12:10:54.636Z,305.04
2019-02-15T12:11:54.636Z,304.06
2019-02-15T12:12:54.625Z,303.80
2019-02-15T12:13:54.605Z,304.32
2019-02-15T12:14:54.624Z,305.02
2019-02-15T12:15:54.580Z,304.60
2019-02-15T12:16:54.613Z,303.80
2019-02-15T12:17:54.557Z,304.35
2019-02-15T12:18:54.759Z,304.46
2019-02-15T12:19:54.658Z,305.58
2019-02-15T12:20:54.552Z,305.17
2019-02-15T12:21:54.549Z,305.24
2019-02-15T12:22:54.544Z,303.94
2019-02-15T12:23:54.659Z,305.55
2019-02-15T12:24:54.526Z,306.01
2019-02-15T12:25:54.540Z,304.89
2019-02-15T12:26:54.594Z,305.38
2019-02-15T12:27:55.589Z,305.16